Forside
METAR-TAF:

METAR-TAF

Lufthavne :

Tjita, Rusland

Breddekreds: 52-05N, længdekreds: 113-29E, højde: 685 m

Aktuelle vejr

Denne rapport blev lavet for 41 minutter siden, kl. 08:30 UTC
Vind 4 kt fra østnordøst
Temperatur -8°C
Fugtighed 73%
Tryk 1016 hPa
Sigt 10 km eller mere
Spredte skyer i en højde af 5000 ft, Cumulonimbus.

METAR: UIAA 270830Z 06002MPS 9999 SCT050CB M08/M12 Q1016 R29/490250 NOSIG RMK QFE703/0938

Tid: 18:11 (09:11 UTC)

Vejrudsigter

Denne rapport blev lavet for 1 time og 11 minutter siden, kl. 08:00 UTC
Foreløbig gælder fra 27 på 09 UTC til 28 på 09 UTC
Vind 6 kt fra nord
Sigt: 3100 m
Brudte skyer i en højde af 2700 ft, Cumulonimbus.
let snebyger
Midlertidig
fra 27 på 09 UTC til 27 på 24 UTC
Vind 10 kt fra østnordøst

TAF: UIAA 270800Z 2709/2809 36003MPS 3100 -SHSN BKN027CB TEMPO 2709/2724 06005MPS

Vejrobservationer og prognoser fra mere end 4000 lufthavne (METAR og TAF).

De gule og røde prikker repræsenterer de meteorologiske stationer.

Flyt musen over at se navnet på stationen.

Så klik over at se vejr observationer og prognoser.

At skifte det kort: Klik på de grønne knapper med et sort kors for at zoome ind; på den grønne knap med en bindestreg for at zoome ud; eller på de grønne pile for tilstødende kort.


METAR-TAF: